createdAt,value
2022-08-05T00:00:34.615Z,28.30
2022-08-05T00:03:15.514Z,28.40
2022-08-05T00:06:04.909Z,28.40
2022-08-05T00:08:34.900Z,28.30
2022-08-05T00:11:20.679Z,28.30
2022-08-05T00:13:57.125Z,28.30
2022-08-05T00:16:36.522Z,28.30
2022-08-05T00:19:12.849Z,28.30
2022-08-05T00:21:42.537Z,28.30
2022-08-05T00:24:11.226Z,28.30
2022-08-05T00:26:51.759Z,28.30
2022-08-05T00:29:25.773Z,28.30
2022-08-05T00:32:12.723Z,28.30
2022-08-05T00:35:04.726Z,28.20
2022-08-05T00:37:51.376Z,28.20
2022-08-05T00:40:28.179Z,28.30
2022-08-05T00:43:02.530Z,28.20
2022-08-05T00:45:42.952Z,28.20
2022-08-05T00:48:31.426Z,28.30
2022-08-05T00:50:59.508Z,28.20
2022-08-05T00:54:01.242Z,28.30
2022-08-05T00:56:23.905Z,28.30
2022-08-05T00:58:52.277Z,28.20
2022-08-05T01:01:42.968Z,28.20
2022-08-05T01:04:13.878Z,28.20
2022-08-05T01:06:42.068Z,28.20
2022-08-05T01:09:14.386Z,28.20
2022-08-05T01:11:48.545Z,28.10
2022-08-05T01:14:40.608Z,28.10
2022-08-05T01:17:22.865Z,28.10
2022-08-05T01:20:15.919Z,28.10
2022-08-05T01:23:44.159Z,28.10
2022-08-05T01:26:36.192Z,28.10
2022-08-05T01:29:25.594Z,28.10
2022-08-05T01:32:01.500Z,28.10
2022-08-05T01:35:10.492Z,28.10
2022-08-05T01:37:50.872Z,28.10
2022-08-05T01:40:29.167Z,28.10
2022-08-05T01:42:58.246Z,28.00
2022-08-05T01:45:28.206Z,28.00
2022-08-05T01:48:03.480Z,28.00
2022-08-05T01:50:41.153Z,28.00
2022-08-05T01:53:54.657Z,28.00
2022-08-05T01:58:18.879Z,28.00
2022-08-05T01:59:05.484Z,28.00
2022-08-05T02:01:40.382Z,28.00
2022-08-05T02:04:10.493Z,28.00
2022-08-05T02:06:39.705Z,28.00
2022-08-05T02:09:08.573Z,28.00
2022-08-05T02:12:02.168Z,28.00
2022-08-05T02:14:47.064Z,27.90
2022-08-05T02:18:30.966Z,28.00
2022-08-05T02:20:26.430Z,27.90
2022-08-05T02:23:02.083Z,27.90
2022-08-05T02:25:50.264Z,27.90
2022-08-05T02:28:32.137Z,27.90
2022-08-05T02:31:16.802Z,27.90
2022-08-05T02:33:57.794Z,27.90
2022-08-05T02:36:27.916Z,27.90
2022-08-05T02:39:02.454Z,27.90
2022-08-05T02:41:37.550Z,27.90
2022-08-05T02:44:24.976Z,27.90
2022-08-05T02:47:00.322Z,27.80
2022-08-05T02:49:35.956Z,27.80
2022-08-05T02:52:08.004Z,27.80
2022-08-05T02:54:41.193Z,27.90
2022-08-05T02:58:11.377Z,27.80
2022-08-05T03:00:05.042Z,27.80
2022-08-05T03:02:39.801Z,27.80
2022-08-05T03:05:10.872Z,27.80
2022-08-05T03:08:06.927Z,27.80
2022-08-05T03:10:31.168Z,27.80
2022-08-05T03:15:28.419Z,27.80
2022-08-05T03:17:57.617Z,27.80
2022-08-05T03:20:25.651Z,27.80
2022-08-05T03:22:57.764Z,27.80
2022-08-05T03:26:04.932Z,27.70
2022-08-05T03:28:25.811Z,27.70
2022-08-05T03:30:54.276Z,27.70
2022-08-05T03:33:23.151Z,27.70
2022-08-05T03:36:00.143Z,27.70
2022-08-05T03:38:33.220Z,27.70
2022-08-05T03:41:10.696Z,27.70
2022-08-05T03:44:09.902Z,27.70
2022-08-05T03:46:26.701Z,27.70
2022-08-05T03:48:58.751Z,27.70
2022-08-05T03:52:36.628Z,27.70
2022-08-05T03:56:00.961Z,27.70
2022-08-05T03:57:55.938Z,27.70
2022-08-05T04:00:29.737Z,27.60
2022-08-05T04:03:03.125Z,27.60
2022-08-05T04:05:35.995Z,27.60
2022-08-05T04:08:22.464Z,27.60
2022-08-05T04:10:57.716Z,27.60
2022-08-05T04:13:27.838Z,27.60
2022-08-05T04:16:15.073Z,27.60
2022-08-05T04:18:45.846Z,27.60
2022-08-05T04:22:09.849Z,27.60
2022-08-05T04:24:19.355Z,27.60
2022-08-05T04:26:50.806Z,27.50
2022-08-05T04:29:18.706Z,27.50
2022-08-05T04:31:48.506Z,27.50
2022-08-05T04:34:32.733Z,27.50
2022-08-05T04:37:01.389Z,27.50
2022-08-05T04:39:32.154Z,27.50
2022-08-05T04:41:59.948Z,27.50
2022-08-05T04:44:30.746Z,27.50
2022-08-05T04:46:59.726Z,27.50
2022-08-05T04:49:39.118Z,27.50
2022-08-05T04:52:16.508Z,27.40
2022-08-05T04:54:44.455Z,27.40
2022-08-05T04:57:12.094Z,27.40
2022-08-05T04:59:40.530Z,27.40
2022-08-05T05:02:36.679Z,27.40
2022-08-05T05:05:02.113Z,27.40
2022-08-05T05:07:35.373Z,27.40
2022-08-05T05:10:06.529Z,27.40
2022-08-05T05:12:34.223Z,27.40
2022-08-05T05:15:10.894Z,27.40
2022-08-05T05:17:56.898Z,27.50
2022-08-05T05:20:28.426Z,27.40
2022-08-05T05:23:08.199Z,27.40
2022-08-05T05:25:40.948Z,27.40
2022-08-05T05:28:10.375Z,27.40
2022-08-05T05:30:39.337Z,27.40
2022-08-05T05:33:15.887Z,27.40
2022-08-05T05:35:48.727Z,27.40
2022-08-05T05:38:22.641Z,27.40
2022-08-05T05:40:59.448Z,27.40
2022-08-05T05:43:54.151Z,27.40
2022-08-05T05:46:16.043Z,27.40
2022-08-05T05:48:48.186Z,27.40
2022-08-05T05:51:24.005Z,27.40
2022-08-05T05:53:57.251Z,27.40
2022-08-05T05:56:32.618Z,27.40
2022-08-05T05:59:07.846Z,27.40
2022-08-05T06:01:39.465Z,27.40
2022-08-05T06:04:14.306Z,27.40
2022-08-05T06:06:47.368Z,27.40
2022-08-05T06:09:25.669Z,27.40
2022-08-05T06:12:04.298Z,27.40
2022-08-05T06:14:33.428Z,27.40
2022-08-05T06:17:22.372Z,27.40
2022-08-05T06:19:56.872Z,27.40
2022-08-05T06:22:33.875Z,27.40
2022-08-05T06:25:25.136Z,27.40
2022-08-05T06:28:10.783Z,27.40
2022-08-05T06:30:40.613Z,27.40
2022-08-05T06:33:09.915Z,27.40
2022-08-05T06:36:08.168Z,27.40
2022-08-05T06:38:35.793Z,27.40
2022-08-05T06:41:08.196Z,27.40
2022-08-05T06:43:57.742Z,27.30
2022-08-05T06:46:30.197Z,27.30
2022-08-05T06:48:59.900Z,27.40
2022-08-05T06:51:30.975Z,27.30
2022-08-05T06:54:04.352Z,27.30
2022-08-05T06:56:34.822Z,27.30
2022-08-05T06:59:08.667Z,27.30
2022-08-05T07:01:37.422Z,27.30
2022-08-05T07:04:08.664Z,27.30
2022-08-05T07:06:36.291Z,27.30
2022-08-05T07:09:04.876Z,27.30
2022-08-05T07:11:36.869Z,27.30
2022-08-05T07:14:29.480Z,27.30
2022-08-05T07:18:00.753Z,27.30
2022-08-05T07:22:41.932Z,27.30
2022-08-05T07:25:55.576Z,27.30
2022-08-05T07:28:03.794Z,27.30
2022-08-05T07:30:38.579Z,27.30
2022-08-05T07:33:16.467Z,27.30
2022-08-05T07:36:01.418Z,27.30
2022-08-05T07:38:43.242Z,27.20
2022-08-05T07:42:13.102Z,27.30
2022-08-05T07:44:14.522Z,27.20
2022-08-05T07:46:49.826Z,27.20
2022-08-05T07:49:18.770Z,27.20
2022-08-05T07:51:53.909Z,27.20
2022-08-05T07:54:31.699Z,27.30
2022-08-05T07:57:18.171Z,27.30
2022-08-05T07:59:53.693Z,27.20
2022-08-05T08:02:30.808Z,27.30
2022-08-05T08:05:00.458Z,27.30
2022-08-05T08:07:29.208Z,27.30
2022-08-05T08:10:08.157Z,27.30
2022-08-05T08:12:48.670Z,27.30
2022-08-05T08:15:17.682Z,27.30
2022-08-05T08:18:13.717Z,27.30
2022-08-05T08:21:00.594Z,27.30
2022-08-05T08:24:02.356Z,27.30
2022-08-05T08:26:17.281Z,27.30
2022-08-05T08:28:59.842Z,27.30
2022-08-05T08:31:42.435Z,27.30
2022-08-05T08:34:10.704Z,27.30
2022-08-05T08:36:47.563Z,27.30
2022-08-05T08:39:20.425Z,27.30
2022-08-05T08:41:59.544Z,27.30
2022-08-05T08:45:18.731Z,27.30
2022-08-05T08:48:05.763Z,27.30
2022-08-05T08:50:32.016Z,27.30
2022-08-05T08:53:08.113Z,27.30
2022-08-05T08:56:02.914Z,27.20
2022-08-05T08:58:37.660Z,27.30
2022-08-05T09:01:16.746Z,27.30
2022-08-05T09:03:55.459Z,27.30
2022-08-05T09:06:30.485Z,27.30
2022-08-05T09:09:02.265Z,27.30
2022-08-05T09:11:50.831Z,27.30
2022-08-05T09:14:56.346Z,27.30
2022-08-05T09:17:43.041Z,27.30
2022-08-05T09:20:05.310Z,27.30
2022-08-05T09:23:07.693Z,27.30
2022-08-05T09:26:01.239Z,27.30
2022-08-05T09:28:31.990Z,27.30
2022-08-05T09:31:23.394Z,27.30
2022-08-05T09:34:07.365Z,27.30
2022-08-05T09:36:54.916Z,27.30
2022-08-05T09:39:27.526Z,27.30
2022-08-05T09:42:07.844Z,27.30
2022-08-05T09:44:42.635Z,27.30
2022-08-05T09:47:20.669Z,27.30
2022-08-05T09:50:00.626Z,27.30
2022-08-05T09:52:32.504Z,27.30
2022-08-05T09:55:56.562Z,27.30
2022-08-05T09:58:00.018Z,27.30
2022-08-05T10:00:29.570Z,27.30
2022-08-05T10:03:00.872Z,27.30
2022-08-05T10:05:32.776Z,27.30
2022-08-05T10:08:34.583Z,27.40
2022-08-05T10:10:55.337Z,27.30
2022-08-05T10:13:43.922Z,27.30
2022-08-05T10:16:42.047Z,27.30
2022-08-05T10:19:23.516Z,27.30
2022-08-05T10:21:59.564Z,27.40
2022-08-05T10:24:29.506Z,27.30
2022-08-05T10:27:01.236Z,27.40
2022-08-05T10:30:40.969Z,27.40
2022-08-05T10:32:53.046Z,27.40
2022-08-05T10:35:08.636Z,27.40
2022-08-05T10:37:44.703Z,27.40
2022-08-05T10:40:35.982Z,27.30
2022-08-05T10:43:14.135Z,27.30
2022-08-05T10:45:42.985Z,27.40
2022-08-05T10:48:52.816Z,27.30
2022-08-05T10:51:28.740Z,27.30
2022-08-05T10:54:22.975Z,27.40
2022-08-05T10:56:57.317Z,27.40
2022-08-05T11:00:04.430Z,27.30
2022-08-05T11:02:37.810Z,27.30
2022-08-05T11:05:10.631Z,27.30
2022-08-05T11:08:17.071Z,27.30
2022-08-05T11:11:01.479Z,27.30
2022-08-05T11:13:57.767Z,27.30
2022-08-05T11:16:47.440Z,27.30
2022-08-05T11:20:11.339Z,27.30
2022-08-05T11:22:42.476Z,27.30
2022-08-05T11:26:04.943Z,27.30
2022-08-05T11:28:20.957Z,27.30
2022-08-05T11:30:58.222Z,27.30
2022-08-05T11:33:47.875Z,27.30
2022-08-05T11:36:34.221Z,27.30
2022-08-05T11:39:08.871Z,27.30
2022-08-05T11:42:01.069Z,27.30
2022-08-05T11:44:53.075Z,27.40
2022-08-05T11:47:48.903Z,27.40
2022-08-05T11:50:14.166Z,27.40
2022-08-05T11:52:44.021Z,27.30
2022-08-05T11:55:14.159Z,27.40
2022-08-05T11:58:10.145Z,27.30
2022-08-05T12:00:37.864Z,27.30
2022-08-05T12:03:31.413Z,27.30
2022-08-05T12:06:10.783Z,27.30
2022-08-05T12:08:57.379Z,27.30
2022-08-05T12:11:40.401Z,27.30
2022-08-05T12:14:10.239Z,27.30
2022-08-05T12:16:45.412Z,27.30
2022-08-05T12:20:26.633Z,27.30
2022-08-05T12:22:09.499Z,27.20
2022-08-05T12:24:43.607Z,27.30
2022-08-05T12:27:26.809Z,27.20
2022-08-05T12:30:15.269Z,27.30
2022-08-05T12:32:54.080Z,27.20
2022-08-05T12:35:24.882Z,27.30
2022-08-05T12:38:07.534Z,27.20
2022-08-05T12:40:38.576Z,27.20
2022-08-05T12:43:11.954Z,27.20
2022-08-05T12:45:56.052Z,27.20
2022-08-05T12:48:27.404Z,27.20
2022-08-05T12:52:09.914Z,27.20
2022-08-05T12:54:04.938Z,27.20
2022-08-05T12:56:51.525Z,27.20
2022-08-05T12:59:46.473Z,27.10
2022-08-05T13:02:13.942Z,27.10
2022-08-05T13:04:54.411Z,27.10
2022-08-05T13:07:47.839Z,27.10
2022-08-05T13:10:20.112Z,27.10
2022-08-05T13:12:57.503Z,27.10
2022-08-05T13:15:41.372Z,27.10
2022-08-05T13:18:18.770Z,27.10
2022-08-05T13:20:49.125Z,27.10
2022-08-05T13:23:22.438Z,27.10
2022-08-05T13:25:59.258Z,27.10
2022-08-05T13:28:28.540Z,27.10
2022-08-05T13:30:57.231Z,27.10
2022-08-05T13:34:21.910Z,27.10
2022-08-05T13:36:14.496Z,27.10
2022-08-05T13:38:43.287Z,27.10
2022-08-05T13:41:11.788Z,27.10
2022-08-05T13:43:44.219Z,27.00
2022-08-05T13:46:37.955Z,27.00
2022-08-05T13:49:13.896Z,27.00
2022-08-05T13:51:46.462Z,27.00
2022-08-05T13:54:16.567Z,27.00
2022-08-05T13:56:51.403Z,26.90
2022-08-05T13:59:24.142Z,27.00
2022-08-05T14:02:00.080Z,26.90
2022-08-05T14:04:52.491Z,27.00
2022-08-05T14:07:25.451Z,27.00
2022-08-05T14:10:28.758Z,27.00
2022-08-05T14:12:59.450Z,26.90
2022-08-05T14:16:04.664Z,26.90
2022-08-05T14:18:18.348Z,26.90
2022-08-05T14:20:54.862Z,26.90
2022-08-05T14:23:25.940Z,26.90
2022-08-05T14:25:58.398Z,26.90
2022-08-05T14:28:30.917Z,26.90
2022-08-05T14:31:01.569Z,26.90
2022-08-05T14:33:56.427Z,26.90
2022-08-05T14:36:21.440Z,26.90
2022-08-05T14:38:50.852Z,26.90
2022-08-05T14:41:18.859Z,26.90
2022-08-05T14:43:59.296Z,26.90
2022-08-05T14:46:35.398Z,26.90
2022-08-05T14:49:07.285Z,26.90
2022-08-05T14:51:42.982Z,26.90
2022-08-05T14:54:28.989Z,26.90
2022-08-05T14:56:59.223Z,26.90
2022-08-05T14:59:29.585Z,26.90
2022-08-05T15:02:14.944Z,26.90
2022-08-05T15:04:44.959Z,26.90
2022-08-05T15:08:07.707Z,26.90
2022-08-05T15:10:04.043Z,26.80
2022-08-05T15:12:51.600Z,26.90
2022-08-05T15:15:55.881Z,26.90
2022-08-05T15:18:08.069Z,26.90
2022-08-05T15:20:36.327Z,26.90
2022-08-05T15:23:12.199Z,26.90
2022-08-05T15:25:52.633Z,26.90
2022-08-05T15:28:24.448Z,26.90
2022-08-05T15:30:56.360Z,26.80
2022-08-05T15:34:05.941Z,26.80
2022-08-05T15:36:17.447Z,26.90
2022-08-05T15:40:41.055Z,26.80
2022-08-05T15:41:57.267Z,26.80
2022-08-05T15:44:28.107Z,26.80
2022-08-05T15:46:59.502Z,26.80
2022-08-05T15:49:43.266Z,26.80
2022-08-05T15:52:16.642Z,26.70
2022-08-05T15:54:57.452Z,26.70
2022-08-05T15:57:27.819Z,26.70
2022-08-05T16:00:07.823Z,26.70
2022-08-05T16:02:35.928Z,26.70
2022-08-05T16:05:09.578Z,26.70
2022-08-05T16:07:38.809Z,26.70
2022-08-05T16:10:14.464Z,26.70
2022-08-05T16:12:42.212Z,26.80
2022-08-05T16:15:10.842Z,26.80
2022-08-05T16:17:49.722Z,26.80
2022-08-05T16:20:27.940Z,26.80
2022-08-05T16:22:55.889Z,26.80
2022-08-05T16:25:33.788Z,26.80
2022-08-05T16:28:10.262Z,26.80
2022-08-05T16:30:38.364Z,26.80
2022-08-05T16:33:06.582Z,26.80
2022-08-05T16:35:41.957Z,26.80
2022-08-05T16:38:24.346Z,26.80
2022-08-05T16:41:01.480Z,26.80
2022-08-05T16:43:34.201Z,26.80
2022-08-05T16:46:23.467Z,26.80
2022-08-05T16:48:52.805Z,26.80
2022-08-05T16:51:20.723Z,26.70
2022-08-05T16:54:05.243Z,26.80
2022-08-05T16:56:37.388Z,26.80
2022-08-05T16:59:10.377Z,26.80
2022-08-05T17:01:53.016Z,26.70
2022-08-05T17:04:26.403Z,26.70
2022-08-05T17:06:57.046Z,26.80
2022-08-05T17:09:30.666Z,26.80
2022-08-05T17:12:07.047Z,26.70
2022-08-05T17:14:38.087Z,26.70
2022-08-05T17:17:09.413Z,26.70
2022-08-05T17:19:45.499Z,26.70
2022-08-05T17:22:24.398Z,26.80
2022-08-05T17:24:57.781Z,26.70
2022-08-05T17:27:33.774Z,26.70
2022-08-05T17:30:07.129Z,26.60
2022-08-05T17:32:47.152Z,26.70
2022-08-05T17:35:20.940Z,26.60
2022-08-05T17:37:49.511Z,26.70
2022-08-05T17:40:22.486Z,26.60
2022-08-05T17:42:53.244Z,26.60
2022-08-05T17:45:29.495Z,26.60
2022-08-05T17:48:08.180Z,26.60
2022-08-05T17:50:36.015Z,26.60
2022-08-05T17:53:08.326Z,26.60
2022-08-05T17:55:39.653Z,26.60
2022-08-05T17:58:12.257Z,26.60
2022-08-05T18:00:50.588Z,26.60
2022-08-05T18:03:55.936Z,26.60
2022-08-05T18:06:11.464Z,26.60
2022-08-05T18:08:44.566Z,26.60
2022-08-05T18:11:24.149Z,26.60
2022-08-05T18:14:03.372Z,26.60
2022-08-05T18:16:32.545Z,26.60
2022-08-05T18:19:00.284Z,26.60
2022-08-05T18:22:07.396Z,26.60
2022-08-05T18:24:15.676Z,26.50
2022-08-05T18:26:43.808Z,26.50
2022-08-05T18:29:11.497Z,26.50
2022-08-05T18:31:43.174Z,26.50
2022-08-05T18:34:12.197Z,26.60
2022-08-05T18:36:41.321Z,26.50
2022-08-05T18:39:42.083Z,26.50
2022-08-05T18:42:07.650Z,26.50
2022-08-05T18:44:51.389Z,26.50
2022-08-05T18:47:26.543Z,26.50
2022-08-05T18:50:15.716Z,26.50
2022-08-05T18:52:51.184Z,26.50
2022-08-05T18:55:21.555Z,26.50
2022-08-05T18:57:53.970Z,26.50
2022-08-05T19:00:29.110Z,26.50
2022-08-05T19:03:04.171Z,26.40
2022-08-05T19:06:12.092Z,26.50
2022-08-05T19:08:30.975Z,26.50
2022-08-05T19:11:04.608Z,26.50
2022-08-05T19:13:35.605Z,26.50
2022-08-05T19:16:25.045Z,26.40
2022-08-05T19:18:53.743Z,26.40
2022-08-05T19:21:25.260Z,26.50
2022-08-05T19:24:06.996Z,26.50
2022-08-05T19:26:54.323Z,26.50
2022-08-05T19:29:26.775Z,26.50
2022-08-05T19:32:11.234Z,26.50
2022-08-05T19:34:39.761Z,26.50
2022-08-05T19:37:08.156Z,26.50
2022-08-05T19:39:45.714Z,26.50
2022-08-05T19:42:36.110Z,26.40
2022-08-05T19:45:06.019Z,26.40
2022-08-05T19:47:37.559Z,26.40
2022-08-05T19:50:07.751Z,26.40
2022-08-05T19:52:38.386Z,26.40
2022-08-05T19:56:11.483Z,26.40
2022-08-05T19:58:19.532Z,26.40
2022-08-05T20:00:42.358Z,26.40
2022-08-05T20:03:11.148Z,26.40
2022-08-05T20:05:43.553Z,26.40
2022-08-05T20:08:20.090Z,26.30
2022-08-05T20:10:49.350Z,26.30
2022-08-05T20:13:18.358Z,26.30
2022-08-05T20:15:58.111Z,26.30
2022-08-05T20:18:33.846Z,26.30
2022-08-05T20:21:06.697Z,26.30
2022-08-05T20:23:50.828Z,26.30
2022-08-05T20:26:23.327Z,26.20
2022-08-05T20:28:56.813Z,26.20
2022-08-05T20:31:36.971Z,26.20
2022-08-05T20:34:12.343Z,26.20
2022-08-05T20:36:43.515Z,26.20
2022-08-05T20:39:16.286Z,26.20
2022-08-05T20:41:47.896Z,26.20
2022-08-05T20:44:29.532Z,26.20
2022-08-05T20:47:04.166Z,26.20
2022-08-05T20:49:37.756Z,26.10
2022-08-05T20:52:08.558Z,26.10
2022-08-05T20:54:59.781Z,26.10
2022-08-05T20:57:42.003Z,26.10
2022-08-05T21:00:20.915Z,26.00
2022-08-05T21:03:07.321Z,26.00
2022-08-05T21:05:54.337Z,26.00
2022-08-05T21:08:26.841Z,26.00
2022-08-05T21:11:01.063Z,26.00
2022-08-05T21:13:48.098Z,26.00
2022-08-05T21:16:29.963Z,26.00
2022-08-05T21:19:01.213Z,26.00
2022-08-05T21:21:39.352Z,26.00
2022-08-05T21:24:12.837Z,26.00
2022-08-05T21:26:41.636Z,26.00
2022-08-05T21:29:12.593Z,25.90
2022-08-05T21:31:45.013Z,25.90
2022-08-05T21:34:12.771Z,25.90
2022-08-05T21:36:42.329Z,25.90
2022-08-05T21:39:14.347Z,25.90
2022-08-05T21:41:52.445Z,25.90
2022-08-05T21:44:26.987Z,25.90
2022-08-05T21:46:57.933Z,25.90
2022-08-05T21:49:58.545Z,25.90
2022-08-05T21:52:16.619Z,25.90
2022-08-05T21:54:57.599Z,25.90
2022-08-05T21:57:35.083Z,25.90
2022-08-05T22:00:11.714Z,25.90
2022-08-05T22:02:43.905Z,25.90
2022-08-05T22:05:13.830Z,25.90
2022-08-05T22:07:58.839Z,25.80
2022-08-05T22:10:27.689Z,25.80
2022-08-05T22:13:09.146Z,25.80
2022-08-05T22:16:00.570Z,25.80
2022-08-05T22:18:35.254Z,25.80
2022-08-05T22:21:04.707Z,25.80
2022-08-05T22:24:12.783Z,25.70
2022-08-05T22:26:59.946Z,25.70
2022-08-05T22:29:30.755Z,25.80
2022-08-05T22:32:02.741Z,25.80
2022-08-05T22:34:32.988Z,25.80
2022-08-05T22:37:03.978Z,25.80
2022-08-05T22:39:34.914Z,25.80
2022-08-05T22:42:10.231Z,25.80
2022-08-05T22:44:48.594Z,25.70
2022-08-05T22:47:30.055Z,25.80
2022-08-05T22:50:23.011Z,25.70
2022-08-05T22:52:51.277Z,25.70
2022-08-05T22:55:21.837Z,25.70
2022-08-05T22:57:52.077Z,25.70
2022-08-05T23:00:22.413Z,25.70
2022-08-05T23:02:52.549Z,25.70
2022-08-05T23:05:22.247Z,25.70
2022-08-05T23:07:51.839Z,25.70
2022-08-05T23:10:23.611Z,25.70
2022-08-05T23:12:54.385Z,25.70
2022-08-05T23:15:29.063Z,25.70
2022-08-05T23:18:03.345Z,25.70
2022-08-05T23:20:37.194Z,25.70
2022-08-05T23:23:08.643Z,25.70
2022-08-05T23:25:54.740Z,25.60
2022-08-05T23:28:28.676Z,25.60
2022-08-05T23:31:15.678Z,25.60
2022-08-05T23:34:03.931Z,25.60
2022-08-05T23:36:40.189Z,25.60
2022-08-05T23:39:17.500Z,25.60
2022-08-05T23:42:00.532Z,25.60
2022-08-05T23:44:31.415Z,25.50
2022-08-05T23:47:02.424Z,25.60
2022-08-05T23:49:45.675Z,25.50
2022-08-05T23:52:32.413Z,25.50
2022-08-05T23:55:10.218Z,25.50
2022-08-05T23:57:38.433Z,25.50
